Flagg, Illinois
Current Conditions -  °F | °C
As of 6:35 PM on Friday 24 Oct 2014 (Local Time) from KRPJ Reporting Station
Broken Clouds Broken Clouds  
Wind Chill: 57°   Ceiling: 8500
Heat Index: 57°   Visibility: 10mi
Dew Point: 46°   Wind: 7mph
Humidity: 66%   Direction: 170°S
Pressure: 29.94"   Gusts: NA
Location:  41.9424°N, 89.0653°W
Report Text: KRPJ 242335Z AUTO 17006KT 10SM BKN085 14/08 A2994 RMK AO2 T01370075
Loading
Personal Weather Stations






























Interactive Weather Map
Tropical Storm Tracking
New forecast layout! Learn more

10-Day Weather Forecast

Advertisements
Track Severe Weather on mobile